createdAt,value
2019-01-16T00:00:10.824Z,78.10
2019-01-16T00:03:08.050Z,76.30
2019-01-16T00:06:00.432Z,74.60
2019-01-16T00:08:54.634Z,75.10
2019-01-16T00:11:35.163Z,74.90
2019-01-16T00:14:23.758Z,74.20
2019-01-16T00:17:21.960Z,74.80
2019-01-16T00:20:09.032Z,75.20
2019-01-16T00:22:57.538Z,74.20
2019-01-16T00:25:45.980Z,73.40
2019-01-16T00:28:33.141Z,72.90
2019-01-16T00:31:21.896Z,73.00
2019-01-16T00:34:02.308Z,72.20
2019-01-16T00:36:56.867Z,72.70
2019-01-16T00:39:44.034Z,74.00
2019-01-16T00:42:47.960Z,75.00
2019-01-16T00:45:26.117Z,76.00
2019-01-16T00:48:24.405Z,76.50
2019-01-16T00:51:06.360Z,76.10
2019-01-16T00:53:45.076Z,75.40
2019-01-16T00:56:33.556Z,75.00
2019-01-16T00:59:21.193Z,76.40
2019-01-16T01:02:09.671Z,76.10
2019-01-16T01:04:58.145Z,76.10
2019-01-16T01:07:45.042Z,77.80
2019-01-16T01:10:45.896Z,78.50
2019-01-16T01:13:32.281Z,78.20
2019-01-16T01:16:13.694Z,76.80
2019-01-16T01:19:00.769Z,77.90
2019-01-16T01:21:52.290Z,77.50
2019-01-16T01:24:49.858Z,77.70
2019-01-16T01:27:47.152Z,77.70
2019-01-16T01:30:44.260Z,77.70
2019-01-16T01:33:38.795Z,80.50
2019-01-16T01:36:39.390Z,82.60
2019-01-16T01:39:26.947Z,85.20
2019-01-16T01:42:23.849Z,86.30
2019-01-16T01:45:05.978Z,87.50
2019-01-16T01:48:00.509Z,87.30
2019-01-16T01:50:51.756Z,85.20
2019-01-16T01:53:38.739Z,84.00
2019-01-16T01:56:25.631Z,83.60
2019-01-16T01:59:14.131Z,82.30
2019-01-16T02:02:02.602Z,82.80
2019-01-16T02:04:49.451Z,82.10
2019-01-16T02:07:44.005Z,80.70
2019-01-16T02:10:30.490Z,78.70
2019-01-16T02:13:18.926Z,78.80
2019-01-16T02:16:07.891Z,78.50
2019-01-16T02:18:59.369Z,78.00
2019-01-16T02:21:57.646Z,77.70
2019-01-16T02:24:45.132Z,76.90
2019-01-16T02:27:36.646Z,76.00
2019-01-16T02:30:42.826Z,76.30
2019-01-16T02:33:24.574Z,76.00
2019-01-16T02:36:05.383Z,75.60
2019-01-16T02:39:11.918Z,75.30
2019-01-16T02:42:03.154Z,74.40
2019-01-16T02:44:56.918Z,74.30
2019-01-16T02:47:45.398Z,75.10
2019-01-16T02:50:33.861Z,75.40
2019-01-16T02:53:34.219Z,77.50
2019-01-16T02:56:34.833Z,78.70
2019-01-16T02:59:13.977Z,79.80
2019-01-16T03:02:14.639Z,80.80
2019-01-16T03:05:01.949Z,80.50
2019-01-16T03:08:08.891Z,80.30
2019-01-16T03:10:57.625Z,79.00
2019-01-16T03:13:40.588Z,79.80
2019-01-16T03:16:23.026Z,80.70
2019-01-16T03:19:29.779Z,81.40
2019-01-16T03:22:21.651Z,81.30
2019-01-16T03:25:09.155Z,81.40
2019-01-16T03:27:56.277Z,83.30
2019-01-16T03:30:48.292Z,82.80
2019-01-16T03:33:35.438Z,82.60
2019-01-16T03:36:19.616Z,83.50
2019-01-16T03:38:57.056Z,83.20
2019-01-16T03:41:54.916Z,82.50
2019-01-16T03:44:30.688Z,81.90
2019-01-16T03:47:19.191Z,81.50
2019-01-16T03:50:07.664Z,80.10
2019-01-16T03:52:59.211Z,78.60
2019-01-16T03:55:50.710Z,78.50
2019-01-16T03:58:39.203Z,79.00
2019-01-16T04:01:34.862Z,79.60
2019-01-16T04:04:25.412Z,79.60
2019-01-16T04:07:11.340Z,80.80
2019-01-16T04:10:14.931Z,80.70
2019-01-16T04:13:06.428Z,80.50
2019-01-16T04:16:04.065Z,78.80
2019-01-16T04:18:55.834Z,80.90
2019-01-16T04:21:42.987Z,82.50
2019-01-16T04:24:35.574Z,81.30
2019-01-16T04:27:36.507Z,81.70
2019-01-16T04:30:24.655Z,80.10
2019-01-16T04:33:31.578Z,80.80
2019-01-16T04:36:20.331Z,80.70
2019-01-16T04:39:04.568Z,80.00
2019-01-16T04:41:41.447Z,79.30
2019-01-16T04:44:47.885Z,78.70
2019-01-16T04:47:34.805Z,78.30
2019-01-16T04:50:27.256Z,77.40
2019-01-16T04:53:33.959Z,77.70
2019-01-16T04:56:21.001Z,77.70
2019-01-16T04:59:09.527Z,78.10
2019-01-16T05:02:10.426Z,77.50
2019-01-16T05:05:06.340Z,78.00
2019-01-16T05:07:45.494Z,79.60
2019-01-16T05:10:29.734Z,79.80
2019-01-16T05:13:31.235Z,81.10
2019-01-16T05:16:37.891Z,80.60
2019-01-16T05:19:20.991Z,79.60
2019-01-16T05:22:05.747Z,78.80
2019-01-16T05:24:52.931Z,78.10
2019-01-16T05:27:47.669Z,76.40
2019-01-16T05:30:48.071Z,76.10
2019-01-16T05:33:39.811Z,76.10
2019-01-16T05:36:15.676Z,78.10
2019-01-16T05:39:04.447Z,77.20
2019-01-16T05:41:53.159Z,77.50
2019-01-16T05:44:39.987Z,76.70
2019-01-16T05:47:23.250Z,77.80
2019-01-16T05:50:26.229Z,79.50
2019-01-16T05:53:24.128Z,80.00
2019-01-16T05:56:11.336Z,80.80
2019-01-16T05:58:59.465Z,80.40
2019-01-16T06:02:00.054Z,81.50
2019-01-16T06:04:45.620Z,81.80
2019-01-16T06:07:33.292Z,83.60
2019-01-16T06:10:32.749Z,85.90
2019-01-16T06:13:39.696Z,85.60
2019-01-16T06:16:26.733Z,85.00
2019-01-16T06:19:24.110Z,85.00
2019-01-16T06:22:15.894Z,85.20
2019-01-16T06:25:16.580Z,83.90
2019-01-16T06:28:11.360Z,82.40
2019-01-16T06:31:09.148Z,81.30
2019-01-16T06:33:53.690Z,79.90
2019-01-16T06:36:37.924Z,80.20
2019-01-16T06:39:26.837Z,81.20
2019-01-16T06:42:24.209Z,82.60
2019-01-16T06:45:01.547Z,83.50
2019-01-16T06:47:53.281Z,83.00
2019-01-16T06:50:42.977Z,83.50
2019-01-16T06:53:25.244Z,84.30
2019-01-16T06:56:12.244Z,84.20
2019-01-16T06:58:56.078Z,84.10
2019-01-16T07:01:50.379Z,84.30
2019-01-16T07:04:35.526Z,83.80
2019-01-16T07:07:16.335Z,83.30
2019-01-16T07:10:02.484Z,82.40
2019-01-16T07:13:05.903Z,82.40
2019-01-16T07:15:50.090Z,82.40
2019-01-16T07:18:42.115Z,81.60
2019-01-16T07:21:39.673Z,81.00
2019-01-16T07:24:28.121Z,81.00
2019-01-16T07:27:14.934Z,80.20
2019-01-16T07:29:53.403Z,78.00
2019-01-16T07:32:39.261Z,78.00
2019-01-16T07:35:32.011Z,76.70
2019-01-16T07:38:23.752Z,76.40
2019-01-16T07:41:18.278Z,74.80
2019-01-16T07:44:06.769Z,74.50
2019-01-16T07:47:01.082Z,74.40
2019-01-16T07:49:52.359Z,73.50
2019-01-16T07:52:39.862Z,72.70
2019-01-16T07:55:26.984Z,72.10
2019-01-16T07:58:27.695Z,71.90
2019-01-16T08:01:31.103Z,71.20
2019-01-16T08:04:28.424Z,70.00
2019-01-16T08:07:32.071Z,69.70
2019-01-16T08:10:19.054Z,68.30
2019-01-16T08:13:06.121Z,68.90
2019-01-16T08:15:52.984Z,67.90
2019-01-16T08:18:40.140Z,66.90
2019-01-16T08:21:20.704Z,65.90
2019-01-16T08:24:02.257Z,66.10
2019-01-16T08:26:59.154Z,65.70
2019-01-16T08:29:53.994Z,66.30
2019-01-16T08:32:37.639Z,66.10
2019-01-16T08:35:29.119Z,67.00
2019-01-16T08:38:16.260Z,66.00
2019-01-16T08:41:22.691Z,64.60
2019-01-16T08:44:13.865Z,64.70
2019-01-16T08:47:14.287Z,63.40
2019-01-16T08:50:08.216Z,63.50
2019-01-16T08:53:08.836Z,62.50
2019-01-16T08:56:15.356Z,62.80
2019-01-16T08:59:12.576Z,62.60
2019-01-16T09:01:59.531Z,61.30
2019-01-16T09:04:44.035Z,61.00
2019-01-16T09:07:47.728Z,60.30
2019-01-16T09:10:51.426Z,60.40
2019-01-16T09:13:38.180Z,60.40
2019-01-16T09:16:28.527Z,60.90
2019-01-16T09:19:22.922Z,60.40
2019-01-16T09:22:04.387Z,60.90
2019-01-16T09:24:58.633Z,60.20
2019-01-16T09:27:49.901Z,60.50
2019-01-16T09:30:44.381Z,58.80
2019-01-16T09:33:39.238Z,60.10
2019-01-16T09:36:36.659Z,58.50
2019-01-16T09:39:40.597Z,59.60
2019-01-16T09:42:27.259Z,59.30
2019-01-16T09:45:24.682Z,59.50
2019-01-16T09:48:11.358Z,59.70
2019-01-16T09:51:02.649Z,59.70
2019-01-16T09:53:52.851Z,59.30
2019-01-16T09:56:39.925Z,58.20
2019-01-16T09:59:27.402Z,55.50
2019-01-16T10:02:17.812Z,54.90
2019-01-16T10:05:04.898Z,55.40
2019-01-16T10:07:40.403Z,54.70
2019-01-16T10:10:28.803Z,53.70
2019-01-16T10:13:29.324Z,54.80
2019-01-16T10:16:16.189Z,54.50
2019-01-16T10:19:22.824Z,54.40
2019-01-16T10:22:26.259Z,52.20
2019-01-16T10:25:20.358Z,51.90
2019-01-16T10:28:07.258Z,52.90
2019-01-16T10:30:56.210Z,52.10
2019-01-16T10:33:40.295Z,50.80
2019-01-16T10:36:31.828Z,47.50
2019-01-16T10:39:32.373Z,47.80
2019-01-16T10:42:21.141Z,47.80
2019-01-16T10:45:10.221Z,48.50
2019-01-16T10:47:52.493Z,47.90
2019-01-16T10:50:46.946Z,48.00
2019-01-16T10:53:41.587Z,48.20
2019-01-16T10:56:24.372Z,48.10
2019-01-16T10:59:10.922Z,47.60
2019-01-16T11:02:05.530Z,48.60
2019-01-16T11:04:52.174Z,48.40
2019-01-16T11:07:52.835Z,50.10
2019-01-16T11:10:39.661Z,50.10
2019-01-16T11:13:28.188Z,49.40
2019-01-16T11:16:16.686Z,49.60
2019-01-16T11:19:04.206Z,51.70
2019-01-16T11:21:55.432Z,51.40
2019-01-16T11:24:53.070Z,51.00
2019-01-16T11:27:50.741Z,51.60
2019-01-16T11:30:47.086Z,50.10
2019-01-16T11:33:54.054Z,50.60
2019-01-16T11:36:41.033Z,49.90
2019-01-16T11:39:44.552Z,49.60
2019-01-16T11:42:37.020Z,50.30
2019-01-16T11:45:28.355Z,50.20
2019-01-16T11:48:15.587Z,49.10
2019-01-16T11:51:06.303Z,48.30
2019-01-16T11:54:07.867Z,47.20
2019-01-16T11:56:57.224Z,47.90
2019-01-16T11:59:51.806Z,47.80
2019-01-16T12:02:58.191Z,48.40
2019-01-16T12:05:46.938Z,49.10
2019-01-16T12:08:37.936Z,49.00
2019-01-16T12:11:24.874Z,49.50
2019-01-16T12:14:18.850Z,49.20
2019-01-16T12:17:13.427Z,49.80
2019-01-16T12:20:12.685Z,49.60
2019-01-16T12:23:00.234Z,50.70
2019-01-16T12:25:47.418Z,49.70
2019-01-16T12:28:38.675Z,48.40
2019-01-16T12:31:13.815Z,47.40
2019-01-16T12:33:52.771Z,47.30
2019-01-16T12:36:41.300Z,47.50
2019-01-16T12:39:28.239Z,47.70
2019-01-16T12:42:19.530Z,47.00
2019-01-16T12:45:05.691Z,47.70
2019-01-16T12:48:03.330Z,48.30
2019-01-16T12:51:03.963Z,48.20
2019-01-16T12:53:55.836Z,48.40
2019-01-16T12:56:35.189Z,48.80
2019-01-16T12:59:26.760Z,48.60
2019-01-16T13:02:13.971Z,47.70
2019-01-16T13:04:59.112Z,46.50
2019-01-16T13:07:54.308Z,46.80
2019-01-16T13:10:33.955Z,46.70
2019-01-16T13:13:34.967Z,46.60
2019-01-16T13:16:34.412Z,45.20
2019-01-16T13:19:23.189Z,46.00
2019-01-16T13:22:20.939Z,46.50
2019-01-16T13:25:07.880Z,48.40
2019-01-16T13:28:02.265Z,47.00
2019-01-16T13:30:56.937Z,46.80
2019-01-16T13:33:54.810Z,46.70
2019-01-16T13:36:46.638Z,45.20
2019-01-16T13:39:27.659Z,46.80
2019-01-16T13:42:28.098Z,47.80
2019-01-16T13:45:20.100Z,47.40
2019-01-16T13:48:11.603Z,45.60
2019-01-16T13:50:50.223Z,47.40
2019-01-16T13:53:45.006Z,47.50
2019-01-16T13:56:42.296Z,47.60
2019-01-16T13:59:36.668Z,46.80
2019-01-16T14:02:16.588Z,47.10
2019-01-16T14:05:20.283Z,46.80
2019-01-16T14:08:08.792Z,46.70
2019-01-16T14:11:08.137Z,46.30
2019-01-16T14:14:00.635Z,46.50
2019-01-16T14:16:47.742Z,46.10
2019-01-16T14:19:35.037Z,44.70
2019-01-16T14:22:24.188Z,45.60
2019-01-16T14:25:05.156Z,46.10
2019-01-16T14:27:56.545Z,46.80
2019-01-16T14:30:48.136Z,46.20
2019-01-16T14:33:48.882Z,46.00
2019-01-16T14:36:55.349Z,45.80
2019-01-16T14:39:42.583Z,45.20
2019-01-16T14:42:20.589Z,46.20
2019-01-16T14:45:12.619Z,46.50
2019-01-16T14:47:59.455Z,46.60
2019-01-16T14:50:48.180Z,46.30
2019-01-16T14:53:35.127Z,46.00
2019-01-16T14:56:23.138Z,45.50
2019-01-16T14:59:11.582Z,44.90
2019-01-16T15:02:07.641Z,44.50
2019-01-16T15:04:54.740Z,45.10
2019-01-16T15:07:32.873Z,45.80
2019-01-16T15:10:24.886Z,46.00
2019-01-16T15:13:11.867Z,45.40
2019-01-16T15:16:00.320Z,44.60
2019-01-16T15:18:47.218Z,44.60
2019-01-16T15:21:44.433Z,44.40
2019-01-16T15:24:23.434Z,44.20
2019-01-16T15:27:02.483Z,44.00
2019-01-16T15:30:00.108Z,44.50
2019-01-16T15:32:46.211Z,45.00
2019-01-16T15:35:25.696Z,44.60
2019-01-16T15:38:17.255Z,44.30
2019-01-16T15:41:08.797Z,44.10
2019-01-16T15:44:09.194Z,43.90
2019-01-16T15:47:10.118Z,44.00
2019-01-16T15:49:57.044Z,43.70
2019-01-16T15:52:44.013Z,43.80
2019-01-16T15:55:32.683Z,43.50
2019-01-16T15:58:18.308Z,43.80
2019-01-16T16:01:05.386Z,44.20
2019-01-16T16:03:46.142Z,44.60
2019-01-16T16:06:34.610Z,44.80
2019-01-16T16:09:19.726Z,45.30
2019-01-16T16:12:20.271Z,45.30
2019-01-16T16:15:07.763Z,46.90
2019-01-16T16:17:54.602Z,46.70
2019-01-16T16:20:48.320Z,46.70
2019-01-16T16:23:42.836Z,46.60
2019-01-16T16:26:46.733Z,46.70
2019-01-16T16:29:35.402Z,46.80
2019-01-16T16:32:22.310Z,47.00
2019-01-16T16:35:09.512Z,46.60
2019-01-16T16:37:56.661Z,46.90
2019-01-16T16:40:51.222Z,46.60
2019-01-16T16:43:51.817Z,46.70
2019-01-16T16:46:40.315Z,46.60
2019-01-16T16:49:41.279Z,46.90
2019-01-16T16:52:29.770Z,46.40
2019-01-16T16:55:17.055Z,46.80
2019-01-16T16:57:59.276Z,46.60
2019-01-16T17:00:54.119Z,46.30
2019-01-16T17:03:39.783Z,46.70
2019-01-16T17:06:25.658Z,46.50
2019-01-16T17:09:16.918Z,46.10
2019-01-16T17:12:07.107Z,46.20
2019-01-16T17:14:54.179Z,46.50
2019-01-16T17:17:41.598Z,46.20
2019-01-16T17:20:45.641Z,46.00
2019-01-16T17:23:32.810Z,45.40
2019-01-16T17:26:27.265Z,45.40
2019-01-16T17:29:27.701Z,44.60
2019-01-16T17:32:15.247Z,44.30
2019-01-16T17:35:02.535Z,43.90
2019-01-16T17:37:57.300Z,44.40
2019-01-16T17:40:53.820Z,44.00
2019-01-16T17:43:41.140Z,44.20
2019-01-16T17:46:47.670Z,44.40
2019-01-16T17:49:39.140Z,43.80
2019-01-16T17:52:42.946Z,44.40
2019-01-16T17:55:29.922Z,44.80
2019-01-16T17:58:18.458Z,44.30
2019-01-16T18:01:05.608Z,44.50
2019-01-16T18:03:54.380Z,44.30
2019-01-16T18:06:42.864Z,44.30
2019-01-16T18:09:23.011Z,44.20
2019-01-16T18:12:09.921Z,44.60
2019-01-16T18:14:57.259Z,44.20
2019-01-16T18:17:44.372Z,44.50
2019-01-16T18:20:36.993Z,44.40
2019-01-16T18:23:24.087Z,44.70
2019-01-16T18:26:12.560Z,44.70
2019-01-16T18:28:52.557Z,44.10
2019-01-16T18:31:44.056Z,44.20
2019-01-16T18:34:32.970Z,44.10
2019-01-16T18:37:20.396Z,43.50
2019-01-16T18:40:20.833Z,43.60
2019-01-16T18:43:09.592Z,42.90
2019-01-16T18:45:57.245Z,43.10
2019-01-16T18:48:44.092Z,42.70
2019-01-16T18:51:47.769Z,41.90
2019-01-16T18:54:30.826Z,41.70
2019-01-16T18:57:17.693Z,41.70
2019-01-16T19:00:04.899Z,41.90
2019-01-16T19:02:56.309Z,41.90
2019-01-16T19:05:57.181Z,41.80
2019-01-16T19:08:42.915Z,41.70
2019-01-16T19:11:40.223Z,41.60
2019-01-16T19:14:20.067Z,41.20
2019-01-16T19:17:07.042Z,41.60
2019-01-16T19:19:52.672Z,41.30
2019-01-16T19:22:44.260Z,41.10
2019-01-16T19:25:26.352Z,41.30
2019-01-16T19:28:23.879Z,41.40
2019-01-16T19:31:18.451Z,41.50
2019-01-16T19:34:06.926Z,41.60
2019-01-16T19:36:58.044Z,41.90
2019-01-16T19:39:45.217Z,41.90
2019-01-16T19:42:33.701Z,42.50
2019-01-16T19:45:25.351Z,42.80
2019-01-16T19:48:16.840Z,43.00
2019-01-16T19:51:05.592Z,43.40
2019-01-16T19:53:52.570Z,43.60
2019-01-16T19:56:34.932Z,43.50
2019-01-16T19:59:22.468Z,44.00
2019-01-16T20:02:26.189Z,44.20
2019-01-16T20:05:14.658Z,44.30
2019-01-16T20:07:57.309Z,43.80
2019-01-16T20:10:35.234Z,43.80
2019-01-16T20:13:23.774Z,43.70
2019-01-16T20:16:10.924Z,43.70
2019-01-16T20:18:51.783Z,44.10
2019-01-16T20:21:40.233Z,43.70
2019-01-16T20:24:31.819Z,43.60
2019-01-16T20:27:18.974Z,43.20
2019-01-16T20:30:07.495Z,42.70
2019-01-16T20:32:54.315Z,42.70
2019-01-16T20:35:34.574Z,42.10
2019-01-16T20:38:23.131Z,42.60
2019-01-16T20:41:06.599Z,42.60
2019-01-16T20:43:56.171Z,42.50
2019-01-16T20:46:47.706Z,42.90
2019-01-16T20:49:37.515Z,43.00
2019-01-16T20:52:38.140Z,43.40
2019-01-16T20:55:25.063Z,43.20
2019-01-16T20:58:28.603Z,44.30
2019-01-16T21:01:13.717Z,44.30
2019-01-16T21:04:05.069Z,43.90
2019-01-16T21:06:52.054Z,44.20
2019-01-16T21:09:45.637Z,44.90
2019-01-16T21:12:32.855Z,44.70
2019-01-16T21:15:27.520Z,44.80
2019-01-16T21:18:07.755Z,44.50
2019-01-16T21:20:59.730Z,44.30
2019-01-16T21:23:53.994Z,44.00
2019-01-16T21:26:41.384Z,44.20
2019-01-16T21:29:38.768Z,44.20
2019-01-16T21:32:22.725Z,44.50
2019-01-16T21:35:10.307Z,44.40
2019-01-16T21:38:10.938Z,44.20
2019-01-16T21:40:59.785Z,44.70
2019-01-16T21:44:06.847Z,44.00
2019-01-16T21:46:59.380Z,43.90
2019-01-16T21:49:47.890Z,44.80
2019-01-16T21:52:34.946Z,44.40
2019-01-16T21:55:32.105Z,44.30
2019-01-16T21:58:23.402Z,44.30
2019-01-16T22:01:10.655Z,44.40
2019-01-16T22:03:58.219Z,43.60
2019-01-16T22:06:46.683Z,43.90
2019-01-16T22:09:44.345Z,43.10
2019-01-16T22:12:41.597Z,44.00
2019-01-16T22:15:38.093Z,42.20
2019-01-16T22:18:36.033Z,44.20
2019-01-16T22:21:30.341Z,44.10
2019-01-16T22:24:19.094Z,44.80
2019-01-16T22:27:22.746Z,44.60
2019-01-16T22:30:03.674Z,44.70
2019-01-16T22:32:50.528Z,44.00
2019-01-16T22:35:30.110Z,44.80
2019-01-16T22:38:18.773Z,45.10
2019-01-16T22:41:11.491Z,45.10
2019-01-16T22:44:17.991Z,45.20
2019-01-16T22:47:04.837Z,44.70
2019-01-16T22:49:52.066Z,44.10
2019-01-16T22:52:40.555Z,45.20
2019-01-16T22:55:27.994Z,46.00
2019-01-16T22:58:15.193Z,45.90
2019-01-16T23:01:06.184Z,45.70
2019-01-16T23:03:54.995Z,45.80
2019-01-16T23:06:52.224Z,45.90
2019-01-16T23:09:43.557Z,45.30
2019-01-16T23:12:30.720Z,47.10
2019-01-16T23:15:34.220Z,48.10
2019-01-16T23:18:25.845Z,48.20
2019-01-16T23:21:11.172Z,47.90
2019-01-16T23:24:08.867Z,48.30
2019-01-16T23:26:56.054Z,48.40
2019-01-16T23:29:50.169Z,48.30
2019-01-16T23:32:38.001Z,48.20
2019-01-16T23:35:27.014Z,48.40
2019-01-16T23:38:28.974Z,49.00
2019-01-16T23:41:16.397Z,49.20
2019-01-16T23:44:04.871Z,49.60
2019-01-16T23:46:45.952Z,50.30
2019-01-16T23:49:49.682Z,51.10
2019-01-16T23:52:56.126Z,51.50
2019-01-16T23:55:36.554Z,50.90
2019-01-16T23:58:43.495Z,51.90
